Time;durP1;ratioP1;P1;durP2;ratioP2;P2;SDS_P1;SDS_P2;PMS_P1;PMS_P2;Temp;Humidity;BMP_temperature;BMP_pressure;BME280_temperature;BME280_humidity;BME280_pressure;Samples;Min_cycle;Max_cycle;Signal;HPM_P1;HPM_P2
2020/12/11 00:00:39;;;;;;;21.30;15.43;;;;;;;0.30;83.75;97801.20;1809127;79;21732;-66
2020/12/11 00:03:06;;;;;;;18.00;13.62;;;;;;;0.31;83.72;97797.66;1809010;79;20938;-66
2020/12/11 00:05:34;;;;;;;22.77;16.87;;;;;;;0.31;83.62;97793.22;1809046;79;20982;-66
2020/12/11 00:08:01;;;;;;;21.60;15.40;;;;;;;0.29;83.66;97796.39;1808974;79;20983;-66
2020/12/11 00:10:29;;;;;;;22.62;15.50;;;;;;;0.29;83.70;97795.06;1809011;79;20915;-65
2020/12/11 00:12:57;;;;;;;21.25;17.20;;;;;;;0.26;83.75;97800.47;1809000;79;21244;-65
2020/12/11 00:15:25;;;;;;;23.05;16.73;;;;;;;0.25;83.86;97798.73;1808879;79;20978;-65
2020/12/11 00:17:52;;;;;;;23.00;16.93;;;;;;;0.27;83.82;97792.95;1808948;79;20963;-65
2020/12/11 00:20:21;;;;;;;23.07;15.90;;;;;;;0.29;83.87;97788.47;1808916;79;21029;-65
2020/12/11 00:22:48;;;;;;;22.50;16.07;;;;;;;0.30;83.80;97791.95;1808977;79;20903;-65
2020/12/11 00:25:15;;;;;;;18.07;13.65;;;;;;;0.29;83.79;97790.25;1808800;79;21191;-66
2020/12/11 00:27:43;;;;;;;22.17;15.98;;;;;;;0.30;83.70;97790.20;1824209;78;20930;-65
2020/12/11 00:30:11;;;;;;;21.85;16.90;;;;;;;0.30;83.65;97783.59;1828460;78;20990;-65
2020/12/11 00:32:39;;;;;;;20.97;14.98;;;;;;;0.30;83.71;97786.23;1828500;78;20918;-65
2020/12/11 00:35:08;;;;;;;22.20;15.43;;;;;;;0.31;83.68;97787.09;1828476;78;20902;-65
2020/12/11 00:37:35;;;;;;;21.37;15.58;;;;;;;0.29;83.67;97783.19;1828493;78;21335;-65
2020/12/11 00:40:04;;;;;;;20.15;14.20;;;;;;;0.32;83.63;97790.99;1828459;78;21408;-65
2020/12/11 00:42:32;;;;;;;20.57;15.08;;;;;;;0.34;83.56;97785.65;1828511;78;20997;-65
2020/12/11 00:45:00;;;;;;;22.05;16.57;;;;;;;0.35;83.58;97788.70;1828461;78;20989;-65
2020/12/11 00:47:27;;;;;;;18.95;14.65;;;;;;;0.34;83.57;97780.37;1828540;78;20910;-65
2020/12/11 00:49:56;;;;;;;18.48;14.83;;;;;;;0.34;83.50;97782.53;1828486;78;21375;-66
2020/12/11 00:52:23;;;;;;;20.23;15.78;;;;;;;0.37;83.44;97778.08;1828392;78;20938;-65
2020/12/11 00:54:52;;;;;;;20.80;15.58;;;;;;;0.38;83.42;97775.81;1828460;78;20962;-65
2020/12/11 01:18:30;;;;;;;19.27;13.60;;;;;;;0.32;83.58;97755.80;1828437;78;20922;-65
2020/12/11 01:20:58;;;;;;;21.87;15.55;;;;;;;0.33;83.62;97757.50;1828584;78;22192;-64
2020/12/11 01:23:26;;;;;;;23.32;16.40;;;;;;;0.33;83.61;97760.14;1828422;78;20926;-65
2020/12/11 01:25:54;;;;;;;21.37;15.58;;;;;;;0.33;83.67;97754.86;1828345;78;20969;-65
2020/12/11 01:28:22;;;;;;;24.45;16.65;;;;;;;0.33;83.63;97753.09;1828326;78;20973;-64
2020/12/11 01:30:49;;;;;;;23.60;16.40;;;;;;;0.34;83.57;97752.63;1828551;78;20912;-64
2020/12/11 01:33:17;;;;;;;21.97;15.93;;;;;;;0.33;83.58;97755.74;1828413;78;21349;-64
2020/12/11 01:35:45;;;;;;;28.35;17.95;;;;;;;0.33;83.63;97754.42;1828364;78;21013;-64
2020/12/11 01:38:12;;;;;;;22.65;15.53;;;;;;;0.34;83.66;97760.09;1828478;78;21067;-65
2020/12/11 01:40:40;;;;;;;23.60;16.50;;;;;;;0.32;83.72;97754.01;1828446;78;20910;-65
2020/12/11 01:43:09;;;;;;;26.23;17.87;;;;;;;0.34;83.71;97758.77;1828469;78;20898;-64
2020/12/11 01:45:36;;;;;;;26.70;18.20;;;;;;;0.36;83.62;97754.74;1828435;78;21402;-64
2020/12/11 01:48:03;;;;;;;22.75;17.02;;;;;;;0.35;83.59;97745.97;1828372;78;21434;-65
2020/12/11 01:50:33;;;;;;;27.15;18.02;;;;;;;0.35;83.63;97752.57;1828382;78;21478;-65
2020/12/11 01:53:01;;;;;;;27.02;17.02;;;;;;;0.37;83.61;97750.34;1828418;78;21044;-65
2020/12/11 01:55:28;;;;;;;23.20;17.20;;;;;;;0.37;83.48;97740.62;1828439;78;20906;-67
2020/12/11 01:58:02;;;;;;;22.48;16.97;;;;;;;0.34;83.21;97737.63;1828393;78;21416;-66
2020/12/11 02:00:29;;;;;;;25.92;17.65;;;;;;;0.34;83.31;97746.88;1828416;78;20946;-64
2020/12/11 02:03:06;;;;;;;25.35;17.27;;;;;;;0.31;83.35;97752.28;1828389;78;20914;-64
2020/12/11 02:05:33;;;;;;;24.00;17.10;;;;;;;0.30;83.51;97747.94;1828393;78;20993;-65
2020/12/11 02:08:02;;;;;;;21.55;15.63;;;;;;;0.29;83.56;97746.20;1828502;78;20922;-66
2020/12/11 02:10:30;;;;;;;19.55;15.00;;;;;;;0.28;83.53;97744.47;1828366;78;21329;-66
2020/12/11 02:13:04;;;;;;;22.20;16.37;;;;;;;0.26;83.63;97743.67;1828314;78;20922;-64
2020/12/11 02:15:32;;;;;;;22.02;16.20;;;;;;;0.28;83.69;97744.47;1828508;78;21415;-65
2020/12/11 02:17:59;;;;;;;20.60;15.32;;;;;;;0.28;83.80;97744.47;1828430;78;20910;-65
2020/12/11 02:20:28;;;;;;;22.87;15.85;;;;;;;0.28;83.78;97749.75;1828411;78;20902;-65
2020/12/11 02:22:55;;;;;;;21.68;14.78;;;;;;;0.27;83.76;97745.41;1828429;78;21428;-65
2020/12/11 02:25:23;;;;;;;23.00;15.75;;;;;;;0.29;83.72;97740.92;1828330;78;21918;-65
2020/12/11 02:27:51;;;;;;;21.95;14.93;;;;;;;0.30;83.67;97746.61;1828370;78;21082;-65
2020/12/11 02:30:19;;;;;;;21.90;15.48;;;;;;;0.30;83.66;97745.30;1828298;78;20907;-65
2020/12/11 02:32:47;;;;;;;22.20;15.83;;;;;;;0.32;83.69;97742.12;1828469;78;20871;-65
2020/12/11 02:35:14;;;;;;;20.92;15.65;;;;;;;0.32;83.61;97742.59;1828413;78;21179;-65
2020/12/11 02:37:42;;;;;;;17.98;14.78;;;;;;;0.33;83.58;97745.61;1828273;78;21839;-65
2020/12/11 02:40:09;;;;;;;22.55;15.53;;;;;;;0.34;83.54;97741.59;1828335;78;20918;-66
2020/12/11 02:42:36;;;;;;;24.40;15.90;;;;;;;0.33;83.50;97742.53;1828382;78;20930;-65
2020/12/11 02:45:04;;;;;;;25.20;18.20;;;;;;;0.33;83.44;97730.64;1828391;78;20922;-66
2020/12/11 02:47:33;;;;;;;23.20;17.10;;;;;;;0.34;83.59;97727.53;1828404;78;21355;-66
2020/12/11 02:50:01;;;;;;;24.90;16.55;;;;;;;0.34;83.60;97732.81;1828257;78;20918;-65
2020/12/11 02:52:30;;;;;;;23.52;16.80;;;;;;;0.34;83.52;97723.09;1828371;78;20918;-66
2020/12/11 02:54:58;;;;;;;27.95;19.07;;;;;;;0.35;83.52;97715.59;1828367;78;20907;-65
2020/12/11 02:57:26;;;;;;;23.80;16.95;;;;;;;0.37;83.51;97716.00;1828420;78;20918;-65
2020/12/11 02:59:53;;;;;;;21.85;16.30;;;;;;;0.37;83.51;97713.36;1828435;78;23509;-65
2020/12/11 03:02:21;;;;;;;26.70;17.87;;;;;;;0.37;83.48;97713.36;1828345;78;21005;-65
2020/12/11 03:04:48;;;;;;;23.12;17.82;;;;;;;0.37;83.48;97708.08;1828403;78;21345;-65
2020/12/11 03:07:17;;;;;;;21.25;15.13;;;;;;;0.38;83.45;97711.98;1828315;78;20911;-65
2020/12/11 03:09:44;;;;;;;29.55;19.45;;;;;;;0.40;83.44;97717.20;1828419;78;20997;-65
2020/12/11 03:12:11;;;;;;;21.80;15.78;;;;;;;0.39;83.38;97712.36;1828282;78;21419;-65
2020/12/11 03:14:39;;;;;;;26.30;18.02;;;;;;;0.39;83.42;97713.67;1828324;78;20882;-65
2020/12/11 03:17:06;;;;;;;22.07;16.12;;;;;;;0.39;83.34;97712.83;1828341;78;20922;-65
2020/12/11 03:19:33;;;;;;;28.15;18.85;;;;;;;0.38;83.36;97715.05;1828296;78;20969;-65
2020/12/11 03:22:02;;;;;;;26.40;18.32;;;;;;;0.40;83.38;97718.52;1828346;78;20962;-65
2020/12/11 03:24:30;;;;;;;25.77;17.85;;;;;;;0.38;83.39;97715.05;1828388;78;21175;-65
2020/12/11 03:26:57;;;;;;;27.82;17.90;;;;;;;0.39;83.36;97719.43;1828227;78;20887;-65
2020/12/11 03:29:25;;;;;;;30.88;19.42;;;;;;;0.37;83.41;97719.96;1828413;78;20990;-65
2020/12/11 03:31:52;;;;;;;27.42;18.75;;;;;;;0.35;83.45;97725.30;1828170;78;20981;-65
2020/12/11 03:34:20;;;;;;;24.25;17.77;;;;;;;0.35;83.51;97718.23;1828368;78;20902;-65
2020/12/11 03:36:49;;;;;;;29.20;19.15;;;;;;;0.36;83.51;97721.72;1828345;78;22603;-65
2020/12/11 03:39:16;;;;;;;27.20;18.32;;;;;;;0.36;83.58;97724.36;1828331;78;20886;-65
2020/12/11 03:41:46;;;;;;;31.17;19.12;;;;;;;0.36;83.69;97720.40;1828276;78;20942;-65
2020/12/11 03:44:13;;;;;;;26.68;17.00;;;;;;;0.37;83.73;97718.64;1823481;78;20985;-65
2020/12/11 03:46:41;;;;;;;29.70;19.30;;;;;;;0.38;83.68;97721.66;1828300;78;21052;-65
2020/12/11 03:49:08;;;;;;;31.17;19.60;;;;;;;0.40;83.57;97722.48;1828431;78;21355;-65
2020/12/11 03:51:36;;;;;;;27.50;19.15;;;;;;;0.41;83.56;97714.94;1828247;78;22040;-65
2020/12/11 03:54:04;;;;;;;28.38;18.37;;;;;;;0.42;83.61;97714.03;1828427;78;21364;-65
2020/12/11 03:56:31;;;;;;;28.62;19.05;;;;;;;0.40;83.47;97711.91;1828065;78;21005;-65
2020/12/11 03:58:58;;;;;;;27.00;18.35;;;;;;;0.39;83.50;97712.36;1828389;78;20910;-66
2020/12/11 04:01:26;;;;;;;28.35;18.10;;;;;;;0.40;83.53;97710.59;1828376;78;21360;-65
2020/12/11 04:03:55;;;;;;;25.12;17.17;;;;;;;0.40;83.54;97706.16;1828294;78;20974;-65
2020/12/11 04:06:22;;;;;;;23.73;18.52;;;;;;;0.41;83.62;97712.30;1828317;78;20962;-65
2020/12/11 04:08:50;;;;;;;24.00;16.40;;;;;;;0.41;83.70;97702.61;1797035;78;20915;-65
2020/12/11 04:11:17;;;;;;;31.35;19.85;;;;;;;0.41;83.65;97711.86;1828327;78;21467;-64
2020/12/11 04:13:45;;;;;;;31.35;18.85;;;;;;;0.42;83.60;97710.91;1828415;78;23581;-65
2020/12/11 04:16:13;;;;;;;27.70;17.60;;;;;;;0.41;83.48;97709.66;1828257;78;20982;-65
2020/12/11 04:18:42;;;;;;;23.22;16.50;;;;;;;0.42;83.38;97716.67;1828351;78;20911;-65
2020/12/11 04:21:15;;;;;;;28.62;19.37;;;;;;;0.40;83.36;97714.55;1828254;78;20914;-66
2020/12/11 04:23:44;;;;;;;24.63;17.32;;;;;;;0.37;83.40;97719.96;1828404;78;20969;-66
2020/12/11 04:26:12;;;;;;;28.38;19.27;;;;;;;0.36;83.57;97724.36;1828386;78;23510;-66
2020/12/11 04:28:39;;;;;;;24.32;16.93;;;;;;;0.35;83.68;97727.47;1816038;78;20919;-65
2020/12/11 04:31:06;;;;;;;28.42;18.90;;;;;;;0.37;83.75;97734.02;1808716;79;20899;-66
2020/12/11 04:33:35;;;;;;;32.00;19.17;;;;;;;0.40;83.79;97734.38;1808765;79;20986;-65
2020/12/11 04:36:02;;;;;;;27.73;18.37;;;;;;;0.41;83.81;97726.83;1808866;79;21455;-66
2020/12/11 04:38:30;;;;;;;25.57;18.02;;;;;;;0.42;83.82;97728.09;1809065;79;22677;-66
2020/12/11 04:41:01;;;;;;;27.50;19.12;;;;;;;0.43;83.69;97726.33;1808823;79;20922;-64
2020/12/11 04:43:28;;;;;;;25.00;16.32;;;;;;;0.44;83.58;97742.56;1808932;79;20915;-65
2020/12/11 04:45:56;;;;;;;27.37;17.90;;;;;;;0.45;83.67;97735.05;1784456;79;20926;-66
2020/12/11 04:48:24;;;;;;;26.50;17.90;;;;;;;0.44;83.60;97728.03;1809041;79;20970;-65
2020/12/11 04:50:54;;;;;;;29.42;19.25;;;;;;;0.42;83.55;97733.84;1806125;79;21817;-65
2020/12/11 04:53:21;;;;;;;30.82;18.17;;;;;;;0.40;83.58;97738.34;1808760;79;21037;-65
2020/12/11 04:55:50;;;;;;;23.12;15.80;;;;;;;0.40;83.70;97735.69;1784866;79;20875;-65
2020/12/11 04:58:18;;;;;;;30.08;19.00;;;;;;;0.41;83.65;97736.08;1808934;79;20951;-65
2020/12/11 05:00:45;;;;;;;26.68;17.60;;;;;;;0.38;83.69;97724.30;1808991;79;20954;-65
2020/12/11 05:03:13;;;;;;;35.03;21.25;;;;;;;0.38;83.81;97728.27;1808958;79;21185;-65
2020/12/11 05:05:41;;;;;;;31.48;19.10;;;;;;;0.38;83.87;97725.62;1808803;79;20977;-65
2020/12/11 05:08:19;;;;;;;24.72;16.57;;;;;;;0.38;83.88;97723.86;1808951;79;20871;-66
2020/12/11 05:10:47;;;;;;;29.48;17.62;;;;;;;0.39;83.79;97719.43;1808822;79;20911;-66
2020/12/11 05:13:21;;;;;;;27.10;16.55;;;;;;;0.38;83.75;97726.50;1808895;79;20982;-65
2020/12/11 05:16:12;;;;;;;37.88;22.82;;;;;;;0.38;83.80;97725.62;1808973;79;21342;-65
2020/12/11 05:18:40;;;;;;;37.13;22.52;;;;;;;0.35;83.69;97726.62;1808799;79;20946;-65
2020/12/11 05:21:19;;;;;;;38.92;24.90;;;;;;;0.33;83.82;97724.05;1808987;79;20911;-65
2020/12/11 05:24:04;;;;;;;38.00;21.42;;;;;;;0.34;83.84;97721.78;1808793;79;20875;-65
2020/12/11 05:26:35;;;;;;;36.28;22.87;;;;;;;0.34;83.78;97720.93;1808879;79;20986;-65
2020/12/11 05:29:03;;;;;;;29.65;19.95;;;;;;;0.32;83.90;97714.38;1821871;77;21351;-65
2020/12/11 05:31:31;;;;;;;31.50;19.37;;;;;;;0.32;83.90;97713.06;1828395;78;21009;-65
2020/12/11 05:34:13;;;;;;;27.42;18.52;;;;;;;0.32;83.93;97716.17;1827940;78;20902;-66
2020/12/11 05:36:54;;;;;;;28.00;19.10;;;;;;;0.31;83.91;97713.13;1828374;78;21017;-66
2020/12/11 05:39:32;;;;;;;29.37;18.75;;;;;;;0.31;83.88;97717.94;1828394;78;20973;-65
2020/12/11 05:42:01;;;;;;;25.80;17.67;;;;;;;0.31;83.95;97717.94;1828427;78;21402;-66
2020/12/11 05:44:34;;;;;;;27.82;18.57;;;;;;;0.32;84.00;97717.02;1828433;78;21330;-66
2020/12/11 05:47:22;;;;;;;24.15;17.23;;;;;;;0.32;84.02;97718.81;1828116;78;21056;-65
2020/12/11 05:49:51;;;;;;;23.12;16.80;;;;;;;0.31;84.12;97720.58;1828428;78;20930;-64
2020/12/11 05:52:19;;;;;;;23.07;16.27;;;;;;;0.30;84.04;97724.16;1828394;78;20922;-65
2020/12/11 05:54:53;;;;;;;28.83;17.82;;;;;;;0.31;83.96;97728.97;1828330;78;20930;-65
2020/12/11 05:57:22;;;;;;;26.00;18.20;;;;;;;0.31;84.06;97737.75;1828381;78;20937;-65
2020/12/11 05:59:50;;;;;;;35.05;20.20;;;;;;;0.31;84.21;97741.70;1828541;78;20883;-65
2020/12/11 06:02:18;;;;;;;27.40;18.62;;;;;;;0.32;84.28;97747.41;1828343;78;20914;-65
2020/12/11 06:04:47;;;;;;;31.02;20.25;;;;;;;0.32;84.28;97748.72;1828510;78;20874;-66
2020/12/11 06:07:15;;;;;;;27.75;17.65;;;;;;;0.33;84.26;97745.17;1828402;78;21459;-66
2020/12/11 06:09:44;;;;;;;25.77;18.62;;;;;;;0.37;84.25;97737.13;1828340;78;21002;-65
2020/12/11 06:12:12;;;;;;;25.55;18.10;;;;;;;0.39;84.19;97737.92;1828498;78;21454;-64
2020/12/11 06:15:04;;;;;;;25.20;17.75;;;;;;;0.37;84.12;97732.70;1828266;78;21013;-66
2020/12/11 06:17:35;;;;;;;24.85;17.05;;;;;;;0.38;84.17;97741.48;1821832;78;21013;-66
2020/12/11 06:20:07;;;;;;;27.13;18.20;;;;;;;0.39;84.09;97751.98;1828622;78;22289;-66
2020/12/11 06:22:35;;;;;;;27.13;16.93;;;;;;;0.41;84.06;97743.56;1828331;78;20973;-66
2020/12/11 06:25:29;;;;;;;31.12;19.25;;;;;;;0.41;84.05;97734.75;1828326;78;21122;-66
2020/12/11 06:27:58;;;;;;;35.52;23.83;;;;;;;0.42;83.98;97743.09;1828237;78;20930;-66
2020/12/11 06:30:32;;;;;;;35.58;24.18;;;;;;;0.39;84.01;97742.73;1828540;78;21344;-67
2020/12/11 06:33:00;;;;;;;35.48;23.90;;;;;;;0.40;84.08;97747.58;1828370;78;21349;-66
2020/12/11 06:35:29;;;;;;;34.10;23.27;;;;;;;0.40;84.03;97747.58;1828333;78;20938;-66
2020/12/11 06:37:57;;;;;;;28.70;21.25;;;;;;;0.43;84.12;97752.75;1828286;78;20989;-66
2020/12/11 06:40:48;;;;;;;29.77;21.50;;;;;;;0.45;84.08;97748.25;1828357;78;20934;-66
2020/12/11 06:43:45;;;;;;;32.58;23.07;;;;;;;0.45;84.07;97742.50;1828413;78;20918;-66
2020/12/11 06:46:24;;;;;;;42.80;27.73;;;;;;;0.46;84.15;97742.06;1828383;78;21338;-66
2020/12/11 06:49:13;;;;;;;37.75;23.73;;;;;;;0.47;84.21;97730.55;1828317;78;21084;-66
2020/12/11 06:51:50;;;;;;;56.50;34.83;;;;;;;0.49;84.10;97737.51;1828457;78;20997;-67
2020/12/11 06:54:26;;;;;;;35.70;24.12;;;;;;;0.52;83.97;97737.39;1828242;78;20941;-66
2020/12/11 06:56:57;;;;;;;33.35;22.02;;;;;;;0.53;83.98;97729.84;1828417;78;20985;-67
2020/12/11 06:59:36;;;;;;;42.73;29.07;;;;;;;0.56;84.01;97739.91;1828306;78;21340;-67
2020/12/11 07:02:14;;;;;;;64.05;41.02;;;;;;;0.57;84.12;97734.56;1828309;78;20985;-66
2020/12/11 07:04:40;;;;;;;81.70;47.90;;;;;;;0.59;84.08;97738.00;1827936;78;20922;-67
2020/12/11 07:07:09;;;;;;;69.17;41.15;;;;;;;0.62;84.02;97737.87;1828461;78;21340;-66
2020/12/11 07:09:48;;;;;;;44.25;29.67;;;;;;;0.66;84.00;97735.52;1828398;78;20938;-67
2020/12/11 07:12:16;;;;;;;38.85;28.20;;;;;;;0.70;83.99;97737.10;1828293;78;21229;-65
2020/12/11 07:14:47;;;;;;;30.55;22.10;;;;;;;0.74;84.00;97735.66;1828276;78;20922;-67
2020/12/11 07:17:28;;;;;;;27.73;20.15;;;;;;;0.78;83.85;97731.98;1828394;78;20989;-66
2020/12/11 07:19:59;;;;;;;25.00;18.98;;;;;;;0.81;83.76;97730.53;1828366;78;20926;-66
2020/12/11 07:22:30;;;;;;;32.42;24.47;;;;;;;0.84;83.50;97725.97;1828225;78;20976;-66
2020/12/11 07:24:58;;;;;;;30.90;22.45;;;;;;;0.89;83.35;97731.08;1828444;78;22241;-67
2020/12/11 07:27:28;;;;;;;27.37;20.60;;;;;;;0.93;83.24;97730.04;1828329;78;20969;-67
2020/12/11 07:29:56;;;;;;;26.00;19.77;;;;;;;0.97;83.13;97741.34;1813076;77;20959;-67
2020/12/11 07:32:24;;;;;;;21.45;16.82;;;;;;;0.97;83.08;97750.13;1808671;79;20971;-67
2020/12/11 07:34:52;;;;;;;26.30;18.98;;;;;;;0.99;83.09;97742.98;1808728;79;20927;-66
2020/12/11 07:37:20;;;;;;;42.70;29.37;;;;;;;1.00;83.05;97738.10;1808842;79;21348;-66
2020/12/11 07:39:48;;;;;;;47.45;32.45;;;;;;;1.05;82.95;97741.41;1808731;79;20923;-66
2020/12/11 07:42:21;;;;;;;51.53;37.78;;;;;;;1.07;82.97;97730.33;1808762;79;20915;-65
2020/12/11 07:44:48;;;;;;;50.27;35.73;;;;;;;1.10;82.97;97737.72;1808993;79;20922;-65
2020/12/11 07:47:17;;;;;;;36.30;26.15;;;;;;;1.11;82.97;97740.77;1808789;79;20963;-67
2020/12/11 07:49:47;;;;;;;30.90;21.05;;;;;;;1.13;83.07;97741.56;1808840;79;21510;-67
2020/12/11 07:52:29;;;;;;;38.45;26.85;;;;;;;1.14;83.07;97739.33;1808144;79;21033;-69
2020/12/11 07:54:58;;;;;;;21.10;17.32;;;;;;;1.17;82.99;97739.20;1808727;79;20911;-69
2020/12/11 07:57:26;;;;;;;22.22;18.12;;;;;;;1.18;82.97;97733.84;1808893;79;21527;-68
2020/12/11 08:00:01;;;;;;;25.15;20.37;;;;;;;1.22;82.98;97731.92;1808762;79;20935;-68
2020/12/11 08:02:32;;;;;;;53.15;25.90;;;;;;;1.23;82.90;97729.65;1808872;79;21395;-71
2020/12/11 08:05:02;;;;;;;35.00;22.02;;;;;;;1.23;82.70;97725.69;1808819;79;20946;-69
2020/12/11 08:07:31;;;;;;;32.28;23.65;;;;;;;1.22;82.68;97725.31;1808245;79;21026;-69
2020/12/11 08:10:11;;;;;;;25.05;19.20;;;;;;;1.24;82.80;97727.41;1808678;79;20915;-79
2020/12/11 08:12:40;;;;;;;26.02;20.02;;;;;;;1.26;82.89;97733.49;1809053;79;20919;-69
2020/12/11 08:15:08;;;;;;;33.50;25.48;;;;;;;1.28;82.88;97731.66;1809030;79;22020;-75
2020/12/11 08:17:35;;;;;;;31.57;24.52;;;;;;;1.29;82.78;97729.87;1808877;79;20962;-69
2020/12/11 08:20:05;;;;;;;38.80;27.65;;;;;;;1.30;82.79;97743.03;1808910;79;20970;-69
2020/12/11 08:22:38;;;;;;;51.10;31.37;;;;;;;1.32;82.84;97733.70;1808924;79;21006;-67
2020/12/11 08:25:22;;;;;;;68.22;34.80;;;;;;;1.35;82.74;97733.10;1808900;78;20899;-74
2020/12/11 08:27:50;;;;;;;57.10;30.57;;;;;;;1.36;82.74;97730.86;1808948;79;23566;-68
2020/12/11 08:30:21;;;;;;;67.97;37.85;;;;;;;1.37;82.58;97727.30;1824665;78;20949;-67
2020/12/11 08:32:49;;;;;;;54.33;28.00;;;;;;;1.35;82.51;97724.31;1828476;78;20926;-68
2020/12/11 08:35:20;;;;;;;39.48;22.05;;;;;;;1.33;82.62;97719.09;1828454;78;21355;-68
2020/12/11 08:37:57;;;;;;;33.67;20.60;;;;;;;1.34;82.79;97732.73;1826018;78;21340;-68
2020/12/11 08:40:25;;;;;;;26.45;18.90;;;;;;;1.35;82.95;97727.81;1828447;78;21339;-67
2020/12/11 08:51:00;;;;;;;18.98;16.87;;;;;;;1.44;82.88;97716.83;1828522;78;21478;-67
2020/12/11 08:53:28;;;;;;;21.68;17.02;;;;;;;1.46;82.94;97717.24;1828440;78;21180;-67
2020/12/11 08:55:57;;;;;;;20.77;17.77;;;;;;;1.50;83.03;97717.48;1827877;78;20937;-66
2020/12/11 08:58:24;;;;;;;19.32;16.50;;;;;;;1.53;83.00;97716.03;1828519;78;20969;-66
2020/12/11 09:00:52;;;;;;;21.00;17.70;;;;;;;1.57;82.84;97721.13;1828443;78;20974;-68
2020/12/11 09:03:20;;;;;;;25.10;19.40;;;;;;;1.60;82.74;97713.05;1828522;78;20921;-67
2020/12/11 09:05:47;;;;;;;25.10;19.17;;;;;;;1.62;82.76;97712.53;1828472;78;21243;-67
2020/12/11 09:08:15;;;;;;;26.65;18.62;;;;;;;1.65;82.80;97700.94;1828417;78;21387;-68
2020/12/11 09:10:42;;;;;;;21.68;18.20;;;;;;;1.68;82.72;97700.80;1828429;78;21005;-67
2020/12/11 09:13:10;;;;;;;21.87;18.52;;;;;;;1.71;82.67;97703.78;1828463;78;20922;-68
2020/12/11 09:15:38;;;;;;;36.50;24.30;;;;;;;1.73;82.66;97704.09;1828356;78;20929;-69
2020/12/11 09:18:05;;;;;;;31.23;23.95;;;;;;;1.76;82.62;97703.11;1828516;78;21341;-69
2020/12/11 09:20:34;;;;;;;22.98;17.95;;;;;;;1.79;82.60;97705.14;1828403;78;20945;-68
2020/12/11 09:23:02;;;;;;;25.30;17.95;;;;;;;1.79;82.68;97698.52;1828400;78;21071;-68
2020/12/11 09:25:29;;;;;;;22.30;17.73;;;;;;;1.81;82.52;97698.45;1828372;78;20926;-68
2020/12/11 09:27:57;;;;;;;21.42;16.80;;;;;;;1.84;82.39;97692.17;1828516;78;20927;-68
2020/12/11 09:32:59;;;;;;;22.02;15.72;;;;;;;1.88;82.18;97691.11;1828409;78;21001;-67
2020/12/11 09:35:26;;;;;;;18.55;16.62;;;;;;;1.87;82.12;97684.09;1828081;78;20977;-69
2020/12/11 09:37:54;;;;;;;21.10;16.90;;;;;;;1.89;82.09;97686.19;1828513;78;20970;-68
2020/12/11 09:40:39;;;;;;;17.40;13.90;;;;;;;1.88;82.00;97679.20;1828447;78;21005;-68
2020/12/11 09:45:54;;;;;;;24.57;18.55;;;;;;;1.82;82.03;97672.86;1828394;78;20973;-68
2020/12/11 09:55:49;;;;;;;20.35;16.65;;;;;;;1.88;82.84;97664.63;1828413;78;23589;-66
2020/12/11 09:58:17;;;;;;;17.75;15.72;;;;;;;1.94;83.05;97666.97;1828388;78;21395;-67
2020/12/11 10:00:47;;;;;;;24.50;16.05;;;;;;;1.96;82.83;97665.12;1828458;78;20993;-66
2020/12/11 10:03:21;;;;;;;19.92;16.17;;;;;;;1.99;82.48;97660.54;1828384;78;20946;-67
2020/12/11 10:05:44;;;;;;;19.62;16.25;;;;;;;2.00;82.23;97657.41;1827725;78;20981;-68
2020/12/11 10:08:11;;;;;;;33.28;19.48;;;;;;;2.02;82.16;97654.25;1828453;78;21355;-67
2020/12/11 10:10:39;;;;;;;41.95;22.17;;;;;;;2.01;82.13;97655.65;1828395;78;20945;-67
2020/12/11 10:13:07;;;;;;;30.45;19.48;;;;;;;2.02;82.11;97655.58;1828401;78;20918;-67
2020/12/11 10:15:34;;;;;;;38.02;25.80;;;;;;;2.02;82.11;97648.95;1828361;78;20998;-67
2020/12/11 10:18:04;;;;;;;29.75;23.02;;;;;;;2.00;82.13;97644.17;1828525;78;21442;-68
2020/12/11 10:20:34;;;;;;;23.92;18.12;;;;;;;1.97;82.28;97633.28;1827971;78;21278;-67
2020/12/11 10:23:04;;;;;;;19.07;16.75;;;;;;;1.96;82.55;97636.00;1828521;78;21110;-67
2020/12/11 10:25:33;;;;;;;20.97;17.67;;;;;;;1.97;82.63;97631.08;1828450;78;20914;-67
2020/12/11 10:28:03;;;;;;;18.80;15.95;;;;;;;1.97;82.57;97633.72;1828343;78;20982;-68
2020/12/11 10:30:32;;;;;;;19.65;16.77;;;;;;;1.97;82.74;97615.18;1816371;78;20973;-67
2020/12/11 10:32:59;;;;;;;32.28;22.98;;;;;;;1.98;82.81;97620.88;1808910;79;21289;-67
2020/12/11 10:35:26;;;;;;;32.85;25.77;;;;;;;1.97;82.72;97613.86;1808723;79;20954;-66
2020/12/11 10:37:54;;;;;;;52.60;38.53;;;;;;;1.95;82.71;97604.66;1808859;79;21007;-66
2020/12/11 10:40:21;;;;;;;34.90;30.40;;;;;;;1.96;82.71;97609.52;1808820;79;20911;-66
2020/12/11 10:42:49;;;;;;;17.67;15.13;;;;;;;1.96;82.70;97606.86;1808877;79;20927;-67
2020/12/11 10:45:17;;;;;;;17.20;15.50;;;;;;;1.95;82.84;97602.48;1808831;79;21315;-66
2020/12/11 10:47:44;;;;;;;19.12;17.10;;;;;;;1.95;82.91;97613.92;1808798;79;21436;-67
2020/12/11 10:50:12;;;;;;;20.25;18.25;;;;;;;1.94;82.98;97617.53;1808847;79;21002;-67
2020/12/11 10:52:40;;;;;;;20.20;17.90;;;;;;;1.96;83.06;97626.73;1808772;79;20919;-66
2020/12/11 10:55:07;;;;;;;19.10;16.82;;;;;;;1.94;83.09;97628.13;1808821;79;21006;-66
2020/12/11 10:57:36;;;;;;;24.30;18.82;;;;;;;1.96;83.12;97620.11;1808586;79;21359;-67
2020/12/11 11:00:04;;;;;;;26.20;21.35;;;;;;;1.95;83.25;97624.52;1808777;79;21428;-66
2020/12/11 11:02:32;;;;;;;24.45;20.72;;;;;;;1.91;83.26;97614.17;1808809;79;21022;-67
2020/12/11 11:04:59;;;;;;;20.70;17.82;;;;;;;1.90;83.38;97612.45;1808786;79;20914;-67
2020/12/11 11:07:29;;;;;;;21.93;18.57;;;;;;;1.88;83.61;97612.52;1808831;79;20903;-67
2020/12/11 11:12:55;;;;;;;21.68;18.48;;;;;;;1.91;83.72;97603.58;1808783;79;20981;-66
2020/12/11 11:15:38;;;;;;;22.95;20.60;;;;;;;1.91;83.90;97604.91;1808216;79;20887;-66
2020/12/11 11:23:14;;;;;;;20.82;18.57;;;;;;;1.89;83.94;97596.16;1808857;79;21431;-67
2020/12/11 11:28:20;;;;;;;22.32;20.12;;;;;;;1.89;84.31;97603.66;1715187;83;20980;-67
2020/12/11 11:30:48;;;;;;;20.23;17.52;;;;;;;1.91;84.38;97592.98;1790288;78;20930;-66
2020/12/11 11:33:16;;;;;;;21.57;17.82;;;;;;;1.93;84.42;97592.44;1825756;78;21432;-66
2020/12/11 11:35:46;;;;;;;18.30;16.35;;;;;;;1.95;84.40;97583.95;1825709;78;21319;-67
2020/12/11 11:38:14;;;;;;;18.00;16.27;;;;;;;1.98;84.42;97581.16;1825740;78;21408;-66
2020/12/11 11:40:42;;;;;;;19.12;16.90;;;;;;;1.99;84.37;97588.18;1825724;78;20903;-67
2020/12/11 11:43:09;;;;;;;19.80;17.40;;;;;;;2.01;84.40;97578.84;1825703;78;20926;-66
2020/12/11 11:45:39;;;;;;;18.52;16.67;;;;;;;2.02;84.33;97581.41;1825746;78;20867;-66
2020/12/11 11:48:09;;;;;;;20.25;17.87;;;;;;;2.05;84.33;97591.86;1825803;78;21418;-67
2020/12/11 11:53:16;;;;;;;24.98;20.02;;;;;;;2.07;84.26;97578.06;1825673;78;20970;-67
2020/12/11 11:55:43;;;;;;;24.45;20.17;;;;;;;2.08;84.27;97574.50;1825097;78;20875;-67
2020/12/11 11:58:11;;;;;;;24.52;20.45;;;;;;;2.10;84.25;97583.22;1825856;78;21450;-66
2020/12/11 12:00:40;;;;;;;25.72;19.48;;;;;;;2.11;84.09;97566.41;1825783;78;21439;-66
2020/12/11 12:03:09;;;;;;;25.75;20.35;;;;;;;2.14;84.00;97571.55;1825763;78;20910;-67
2020/12/11 12:05:36;;;;;;;18.73;16.65;;;;;;;2.11;83.87;97573.02;1825729;78;20970;-67
2020/12/11 12:08:03;;;;;;;20.90;18.37;;;;;;;2.11;83.94;97560.23;1825748;78;21026;-67
2020/12/11 12:10:31;;;;;;;23.10;19.48;;;;;;;2.12;83.93;97568.09;1825765;78;20927;-67
2020/12/11 12:12:59;;;;;;;26.90;19.77;;;;;;;2.11;83.86;97566.41;1825720;78;21346;-66
2020/12/11 12:15:27;;;;;;;30.72;20.85;;;;;;;2.10;83.79;97566.00;1825651;78;20945;-67
2020/12/11 12:18:00;;;;;;;49.53;25.82;;;;;;;2.12;83.85;97564.13;1825712;78;21003;-67
2020/12/11 12:28:51;;;;;;;26.37;19.98;;;;;;;2.18;84.11;97562.98;1825654;78;22035;-67
2020/12/11 12:31:07;;;;;;;24.02;19.48;;;;;;;2.16;84.07;97564.38;1823111;77;28226;-68
2020/12/11 12:43:59;;;;;;;20.97;18.73;;;;;;;2.20;83.86;97551.83;1825469;78;20914;-68
2020/12/11 12:46:26;;;;;;;24.57;19.75;;;;;;;2.20;83.95;97551.83;1825638;78;20981;-66
2020/12/11 12:48:55;;;;;;;22.87;19.20;;;;;;;2.19;83.83;97551.91;1825758;78;20986;-67